createdAt,value
2018-11-01T00:02:17.446Z,100299.00
2018-11-01T00:04:47.119Z,100294.00
2018-11-01T00:07:16.726Z,100293.00
2018-11-01T00:09:46.399Z,100287.00
2018-11-01T00:12:16.035Z,100284.00
2018-11-01T00:14:45.829Z,100288.00
2018-11-01T00:17:15.875Z,100288.00
2018-11-01T00:19:46.557Z,100290.00
2018-11-01T00:22:20.317Z,100291.00
2018-11-01T00:25:00.480Z,100304.00
2018-11-01T00:27:33.760Z,100297.00
2018-11-01T00:30:04.654Z,100292.00
2018-11-01T00:32:34.308Z,100287.00
2018-11-01T00:35:03.973Z,100285.00
2018-11-01T00:37:34.852Z,100286.00
2018-11-01T00:40:09.597Z,100280.00
2018-11-01T00:42:41.147Z,100277.00
2018-11-01T00:45:11.871Z,100273.00
2018-11-01T00:47:41.591Z,100270.00
2018-11-01T00:50:13.098Z,100276.00
2018-11-01T00:52:43.966Z,100283.00
2018-11-01T00:55:14.341Z,100286.00
2018-11-01T00:57:45.412Z,100281.00
2018-11-01T01:00:16.498Z,100276.00
2018-11-01T01:02:47.350Z,100271.00
2018-11-01T01:05:18.221Z,100272.00
2018-11-01T01:07:47.968Z,100264.00
2018-11-01T01:10:18.877Z,100258.00
2018-11-01T01:12:49.343Z,100259.00
2018-11-01T01:15:20.092Z,100255.00
2018-11-01T01:17:50.521Z,100251.00
2018-11-01T01:20:20.298Z,100254.00
2018-11-01T01:22:50.147Z,100251.00
2018-11-01T01:25:20.095Z,100252.00
2018-11-01T01:27:50.032Z,100253.00
2018-11-01T01:30:21.014Z,100253.00
2018-11-01T01:32:51.262Z,100251.00
2018-11-01T01:35:22.357Z,100250.00
2018-11-01T01:37:52.229Z,100248.00
2018-11-01T01:40:22.848Z,100252.00
2018-11-01T01:42:53.850Z,100248.00
2018-11-01T01:45:24.430Z,100237.00
2018-11-01T01:47:54.091Z,100228.00
2018-11-01T01:50:24.969Z,100227.00
2018-11-01T01:52:54.617Z,100226.00
2018-11-01T01:55:24.148Z,100226.00
2018-11-01T01:57:55.201Z,100221.00
2018-11-01T02:00:25.048Z,100228.00
2018-11-01T02:02:56.917Z,100232.00
2018-11-01T02:05:26.392Z,100236.00
2018-11-01T02:07:56.222Z,100241.00
2018-11-01T02:10:25.943Z,100233.00
2018-11-01T02:12:56.359Z,100242.00
2018-11-01T02:15:26.197Z,100245.00
2018-11-01T02:17:55.670Z,100249.00
2018-11-01T02:20:31.378Z,100254.00
2018-11-01T02:23:01.031Z,100244.00
2018-11-01T02:25:31.469Z,100242.00
2018-11-01T02:28:06.128Z,100234.00
2018-11-01T02:30:35.981Z,100221.00
2018-11-01T02:33:06.415Z,100217.00
2018-11-01T02:35:35.985Z,100224.00
2018-11-01T02:38:05.832Z,100220.00
2018-11-01T02:40:35.552Z,100215.00
2018-11-01T02:43:05.570Z,100210.00
2018-11-01T02:45:35.198Z,100207.00
2018-11-01T02:48:05.017Z,100207.00
2018-11-01T02:50:36.325Z,100201.00
2018-11-01T02:53:06.335Z,100211.00
2018-11-01T02:55:36.152Z,100213.00
2018-11-01T02:58:06.068Z,100212.00
2018-11-01T03:00:35.948Z,100202.00
2018-11-01T03:03:06.713Z,100184.00
2018-11-01T03:05:36.647Z,100187.00
2018-11-01T03:08:07.609Z,100193.00
2018-11-01T03:10:38.815Z,100200.00
2018-11-01T03:13:08.635Z,100196.00
2018-11-01T03:15:38.278Z,100203.00
2018-11-01T03:18:07.976Z,100198.00
2018-11-01T03:20:44.313Z,100200.00
2018-11-01T03:23:15.006Z,100201.00
2018-11-01T03:25:47.727Z,100192.00
2018-11-01T03:28:19.582Z,100193.00
2018-11-01T03:30:49.453Z,100194.00
2018-11-01T03:33:19.343Z,100201.00
2018-11-01T03:35:49.144Z,100198.00
2018-11-01T03:38:19.377Z,100200.00
2018-11-01T03:40:49.949Z,100198.00
2018-11-01T03:43:19.832Z,100183.00
2018-11-01T03:45:50.560Z,100177.00
2018-11-01T03:48:20.467Z,100168.00
2018-11-01T03:50:50.260Z,100159.00
2018-11-01T03:53:19.875Z,100160.00
2018-11-01T03:55:50.262Z,100164.00
2018-11-01T03:58:21.109Z,100164.00
2018-11-01T04:00:50.719Z,100166.00
2018-11-01T04:03:20.546Z,100169.00
2018-11-01T04:05:50.692Z,100164.00
2018-11-01T04:08:21.473Z,100160.00
2018-11-01T04:10:51.153Z,100155.00
2018-11-01T04:13:20.891Z,100161.00
2018-11-01T04:15:51.074Z,100163.00
2018-11-01T04:18:23.177Z,100147.00
2018-11-01T04:20:52.784Z,100146.00
2018-11-01T04:23:22.975Z,100148.00
2018-11-01T04:25:52.590Z,100166.00
2018-11-01T04:28:24.589Z,100162.00
2018-11-01T04:30:54.125Z,100157.00
2018-11-01T04:33:23.842Z,100166.00
2018-11-01T04:35:54.153Z,100172.00
2018-11-01T04:38:24.720Z,100169.00
2018-11-01T04:40:54.353Z,100161.00
2018-11-01T04:43:25.585Z,100156.00
2018-11-01T04:45:55.207Z,100168.00
2018-11-01T04:48:25.038Z,100175.00
2018-11-01T04:50:54.808Z,100148.00
2018-11-01T04:53:25.291Z,100141.00
2018-11-01T04:55:56.115Z,100134.00
2018-11-01T04:58:26.563Z,100128.00
2018-11-01T05:00:56.325Z,100134.00
2018-11-01T05:03:26.171Z,100122.00
2018-11-01T05:05:55.771Z,100129.00
2018-11-01T05:08:25.514Z,100134.00
2018-11-01T05:10:55.275Z,100128.00
2018-11-01T05:13:27.641Z,100127.00
2018-11-01T05:15:57.474Z,100119.00
2018-11-01T05:18:27.120Z,100120.00
2018-11-01T05:20:56.649Z,100103.00
2018-11-01T05:23:27.047Z,100100.00
2018-11-01T05:25:56.839Z,100090.00
2018-11-01T05:28:26.561Z,100090.00
2018-11-01T05:30:56.152Z,100091.00
2018-11-01T05:33:25.958Z,100088.00
2018-11-01T05:35:55.720Z,100101.00
2018-11-01T05:38:25.792Z,100106.00
2018-11-01T05:40:55.573Z,100103.00
2018-11-01T05:43:29.640Z,100097.00
2018-11-01T05:46:00.331Z,100095.00
2018-11-01T05:48:30.432Z,100092.00
2018-11-01T05:51:01.060Z,100093.00
2018-11-01T05:53:30.902Z,100108.00
2018-11-01T05:56:00.789Z,100110.00
2018-11-01T05:58:31.495Z,100109.00
2018-11-01T06:01:05.709Z,100094.00
2018-11-01T06:03:39.275Z,100091.00
2018-11-01T06:06:10.572Z,100084.00
2018-11-01T06:08:43.327Z,100093.00
2018-11-01T06:11:13.098Z,100104.00
2018-11-01T06:13:42.879Z,100104.00
2018-11-01T06:16:13.439Z,100120.00
2018-11-01T06:19:52.481Z,100124.00
2018-11-01T06:22:22.013Z,100134.00
2018-11-01T06:24:52.124Z,100134.00
2018-11-01T06:27:21.729Z,100140.00
2018-11-01T06:29:51.242Z,100138.00
2018-11-01T06:32:21.646Z,100122.00
2018-11-01T06:34:53.544Z,100110.00
2018-11-01T06:37:23.337Z,100108.00
2018-11-01T06:39:53.149Z,100102.00
2018-11-01T06:42:29.709Z,100093.00
2018-11-01T06:45:02.236Z,100093.00
2018-11-01T06:47:38.578Z,100092.00
2018-11-01T06:50:08.587Z,100098.00
2018-11-01T06:52:38.700Z,100085.00
2018-11-01T06:55:10.549Z,100060.00
2018-11-01T06:57:40.406Z,100066.00
2018-11-01T07:00:14.328Z,100074.00
2018-11-01T07:02:44.445Z,100070.00
2018-11-01T07:05:15.381Z,100061.00
2018-11-01T07:07:45.252Z,100057.00
2018-11-01T07:10:16.069Z,100048.00
2018-11-01T07:12:45.862Z,100047.00
2018-11-01T07:15:17.726Z,100045.00
2018-11-01T07:17:47.468Z,100042.00
2018-11-01T07:20:17.067Z,100035.00
2018-11-01T07:22:46.834Z,100029.00
2018-11-01T07:25:23.221Z,100036.00
2018-11-01T07:27:52.833Z,100031.00
2018-11-01T07:30:24.002Z,100021.00
2018-11-01T07:32:54.884Z,100019.00
2018-11-01T07:35:24.692Z,100014.00
2018-11-01T07:37:56.076Z,100010.00
2018-11-01T07:40:29.070Z,100008.00
2018-11-01T07:43:03.007Z,100017.00
2018-11-01T07:45:35.594Z,100024.00
2018-11-01T07:48:18.316Z,100021.00
2018-11-01T07:50:53.222Z,100019.00
2018-11-01T07:53:22.879Z,100018.00
2018-11-01T07:55:54.787Z,100008.00
2018-11-01T07:58:26.783Z,100009.00
2018-11-01T08:01:59.207Z,100001.00
2018-11-01T08:04:28.987Z,99995.00
2018-11-01T08:06:58.827Z,99994.00
2018-11-01T08:09:29.847Z,99997.00
2018-11-01T08:12:00.395Z,99993.00
2018-11-01T08:14:31.482Z,99990.00
2018-11-01T08:17:01.197Z,100000.00
2018-11-01T08:19:30.804Z,100004.00
2018-11-01T08:22:01.180Z,100001.00
2018-11-01T08:24:33.006Z,100002.00
2018-11-01T08:27:03.373Z,100007.00
2018-11-01T08:29:34.404Z,100007.00
2018-11-01T08:32:05.247Z,100010.00
2018-11-01T08:34:37.907Z,100021.00
2018-11-01T08:37:13.647Z,100018.00
2018-11-01T08:39:50.566Z,100015.00
2018-11-01T08:42:22.384Z,99993.00
2018-11-01T08:44:55.138Z,99978.00
2018-11-01T08:47:26.781Z,99981.00
2018-11-01T08:49:59.935Z,99984.00
2018-11-01T08:52:36.831Z,99976.00
2018-11-01T08:55:07.016Z,99974.00
2018-11-01T08:57:52.320Z,99972.00
2018-11-01T09:00:35.015Z,99968.00
2018-11-01T09:06:52.693Z,99966.00
2018-11-01T09:09:30.531Z,99947.00
2018-11-01T09:12:06.752Z,99931.00
2018-11-01T09:14:49.561Z,99945.00
2018-11-01T09:17:22.683Z,99947.00
2018-11-01T09:19:54.499Z,99958.00
2018-11-01T09:23:22.376Z,99958.00
2018-11-01T09:26:12.420Z,99961.00
2018-11-01T09:28:53.953Z,99963.00
2018-11-01T09:31:27.807Z,99962.00
2018-11-01T09:33:59.927Z,99956.00
2018-11-01T09:36:56.677Z,99960.00
2018-11-01T09:46:01.749Z,99942.00
2018-11-01T10:19:57.206Z,99918.00
2018-11-01T10:22:28.540Z,99891.00
2018-11-01T10:28:58.683Z,99892.00
2018-11-01T10:31:36.171Z,99893.00
2018-11-01T10:34:07.667Z,99888.00
2018-11-01T10:36:36.984Z,99884.00
2018-11-01T10:39:09.917Z,99878.00
2018-11-01T11:16:53.125Z,99874.00
2018-11-01T11:28:57.250Z,99874.00
2018-11-01T11:31:32.873Z,99868.00
2018-11-01T11:34:11.811Z,99870.00
2018-11-01T11:36:45.105Z,99871.00
2018-11-01T11:43:22.103Z,99863.00
2018-11-01T11:49:33.236Z,99862.00
2018-11-01T11:52:21.260Z,99868.00
2018-11-01T11:54:56.898Z,99849.00
2018-11-01T11:57:29.983Z,99845.00
2018-11-01T12:00:14.980Z,99840.00
2018-11-01T12:02:45.409Z,99842.00
2018-11-01T12:05:31.758Z,99830.00
2018-11-01T12:08:10.668Z,99818.00
2018-11-01T12:10:50.755Z,99820.00
2018-11-01T12:13:20.992Z,99815.00
2018-11-01T12:15:51.161Z,99814.00
2018-11-01T12:18:27.980Z,99814.00
2018-11-01T12:21:01.577Z,99813.00
2018-11-01T12:23:32.205Z,99816.00
2018-11-01T12:26:05.097Z,99809.00
2018-11-01T12:28:37.219Z,99787.00
2018-11-01T12:31:08.199Z,99775.00
2018-11-01T12:33:37.790Z,99770.00
2018-11-01T12:36:17.270Z,99756.00
2018-11-01T12:39:05.737Z,99750.00
2018-11-01T12:41:45.897Z,99764.00
2018-11-01T12:44:25.183Z,99776.00
2018-11-01T12:47:24.302Z,99770.00
2018-11-01T12:50:06.017Z,99765.00
2018-11-01T12:52:43.002Z,99765.00
2018-11-01T12:55:21.779Z,99760.00
2018-11-01T12:57:55.681Z,99758.00
2018-11-01T13:00:34.540Z,99747.00
2018-11-01T13:03:12.126Z,99734.00
2018-11-01T13:05:57.848Z,99728.00
2018-11-01T13:08:44.309Z,99730.00
2018-11-01T13:11:16.102Z,99713.00
2018-11-01T13:13:53.037Z,99714.00
2018-11-01T13:16:31.755Z,99714.00
2018-11-01T13:19:08.059Z,99724.00
2018-11-01T13:21:46.451Z,99729.00
2018-11-01T13:24:32.022Z,99730.00
2018-11-01T13:27:55.159Z,99717.00
2018-11-01T13:30:31.853Z,99707.00
2018-11-01T13:33:30.940Z,99697.00
2018-11-01T13:39:05.259Z,99693.00
2018-11-01T13:41:40.596Z,99709.00
2018-11-01T13:44:29.995Z,99724.00
2018-11-01T13:47:24.695Z,99708.00
2018-11-01T14:02:44.473Z,99727.00
2018-11-01T14:05:48.407Z,99734.00
2018-11-01T15:12:24.937Z,99722.00
2018-11-01T15:14:54.953Z,99714.00
2018-11-01T15:17:25.284Z,99718.00
2018-11-01T15:19:57.241Z,99720.00
2018-11-01T15:22:26.725Z,99731.00
2018-11-01T15:24:56.142Z,99729.00
2018-11-01T15:27:25.561Z,99725.00
2018-11-01T15:29:59.439Z,99723.00
2018-11-01T15:32:30.755Z,99717.00
2018-11-01T15:35:00.228Z,99725.00
2018-11-01T15:37:32.467Z,99731.00
2018-11-01T15:40:06.523Z,99731.00
2018-11-01T15:42:52.120Z,99726.00
2018-11-01T15:46:09.631Z,99716.00
2018-11-01T15:56:34.546Z,99744.00
2018-11-01T15:59:19.223Z,99738.00
2018-11-01T16:04:31.708Z,99736.00
2018-11-01T16:07:03.719Z,99749.00
2018-11-01T16:09:33.714Z,99754.00
2018-11-01T16:12:06.528Z,99763.00
2018-11-01T16:22:04.538Z,99772.00
2018-11-01T16:25:08.226Z,99778.00
2018-11-01T16:31:15.852Z,99784.00
2018-11-01T17:40:17.890Z,99821.00
2018-11-01T17:42:53.452Z,99819.00
2018-11-01T17:45:27.468Z,99819.00
2018-11-01T17:49:34.838Z,99818.00
2018-11-01T17:52:09.440Z,99830.00
2018-11-01T17:54:45.520Z,99831.00
2018-11-01T17:57:25.677Z,99826.00
2018-11-01T18:00:34.538Z,99840.00
2018-11-01T18:07:06.680Z,99845.00
2018-11-01T18:09:45.476Z,99843.00
2018-11-01T18:12:47.652Z,99848.00
2018-11-01T18:15:50.842Z,99848.00
2018-11-01T18:25:33.859Z,99857.00
2018-11-01T18:28:35.950Z,99858.00
2018-11-01T18:31:52.283Z,99859.00
2018-11-01T19:02:19.269Z,99939.00
2018-11-01T19:05:27.851Z,99932.00
2018-11-01T19:08:07.524Z,99939.00
2018-11-01T19:10:57.818Z,99939.00
2018-11-01T19:13:44.266Z,99942.00
2018-11-01T19:16:34.973Z,99953.00
2018-11-01T19:19:20.623Z,99958.00
2018-11-01T19:21:53.892Z,99966.00
2018-11-01T19:24:38.063Z,99966.00
2018-11-01T19:27:50.648Z,99965.00
2018-11-01T19:30:32.928Z,99961.00
2018-11-01T19:33:11.973Z,99962.00
2018-11-01T19:36:19.849Z,99964.00
2018-11-01T19:39:04.396Z,99971.00
2018-11-01T19:41:58.461Z,99971.00
2018-11-01T19:44:37.952Z,99978.00
2018-11-01T19:47:10.514Z,99979.00
2018-11-01T19:49:53.489Z,99983.00
2018-11-01T19:52:25.606Z,99995.00
2018-11-01T19:54:58.502Z,100002.00
2018-11-01T19:57:32.790Z,99999.00
2018-11-01T20:00:10.809Z,100014.00
2018-11-01T20:02:45.963Z,100019.00
2018-11-01T20:05:27.095Z,100023.00
2018-11-01T20:11:05.430Z,100034.00
2018-11-01T20:13:51.445Z,100034.00
2018-11-01T20:16:23.714Z,100034.00
2018-11-01T20:18:55.470Z,100034.00
2018-11-01T20:24:21.383Z,100038.00
2018-11-01T20:27:16.798Z,100044.00
2018-11-01T20:29:59.809Z,100048.00
2018-11-01T20:32:46.209Z,100058.00
2018-11-01T20:35:18.806Z,100063.00
2018-11-01T20:37:52.808Z,100067.00
2018-11-01T20:40:35.884Z,100066.00
2018-11-01T20:43:09.214Z,100082.00
2018-11-01T20:45:40.777Z,100086.00
2018-11-01T20:48:12.592Z,100076.00
2018-11-01T20:50:44.174Z,100068.00
2018-11-01T20:53:23.210Z,100066.00
2018-11-01T20:56:02.198Z,100059.00
2018-11-01T20:58:49.386Z,100057.00
2018-11-01T21:01:43.462Z,100055.00
2018-11-01T21:10:51.105Z,100064.00
2018-11-01T21:17:40.854Z,100066.00
2018-11-01T21:35:08.785Z,100089.00
2018-11-01T21:42:12.714Z,100087.00
2018-11-01T21:45:26.716Z,100092.00
2018-11-01T21:51:30.396Z,100106.00
2018-11-01T21:54:30.087Z,100108.00
2018-11-01T22:22:03.716Z,100131.00
2018-11-01T22:28:00.279Z,100147.00
2018-11-01T22:30:40.070Z,100158.00
2018-11-01T22:33:37.648Z,100178.00
2018-11-01T22:36:26.015Z,100195.00
2018-11-01T22:39:14.009Z,100202.00
2018-11-01T22:45:15.653Z,100212.00
2018-11-01T22:50:48.759Z,100227.00
2018-11-01T22:53:47.293Z,100238.00
2018-11-01T22:56:21.108Z,100231.00
2018-11-01T22:59:16.333Z,100222.00
2018-11-01T23:02:01.602Z,100238.00
2018-11-01T23:04:38.926Z,100238.00
2018-11-01T23:07:32.385Z,100233.00
2018-11-01T23:13:47.514Z,100235.00
2018-11-01T23:16:30.717Z,100235.00
2018-11-01T23:22:17.197Z,100239.00
2018-11-01T23:25:15.622Z,100239.00
2018-11-01T23:27:55.329Z,100243.00
2018-11-01T23:30:58.940Z,100245.00
2018-11-01T23:33:43.106Z,100250.00
2018-11-01T23:36:23.165Z,100256.00
2018-11-01T23:42:15.191Z,100246.00
2018-11-01T23:44:59.237Z,100239.00
2018-11-01T23:51:05.888Z,100233.00
2018-11-01T23:54:07.313Z,100230.00
2018-11-01T23:59:42.390Z,100213.00
